createdAt,value
2018-12-16T00:01:24.307Z,0.30
2018-12-16T00:03:54.242Z,0.30
2018-12-16T00:06:24.398Z,0.30
2018-12-16T00:08:54.322Z,0.40
2018-12-16T00:11:24.282Z,0.40
2018-12-16T00:13:54.194Z,0.50
2018-12-16T00:16:24.160Z,0.50
2018-12-16T00:18:54.016Z,0.50
2018-12-16T00:21:23.797Z,0.50
2018-12-16T00:23:53.647Z,0.50
2018-12-16T00:26:23.732Z,0.60
2018-12-16T00:28:53.507Z,0.60
2018-12-16T00:31:23.422Z,0.60
2018-12-16T00:33:53.238Z,0.60
2018-12-16T00:36:23.207Z,0.50
2018-12-16T00:38:53.023Z,0.40
2018-12-16T00:41:22.888Z,0.40
2018-12-16T00:43:52.697Z,0.40
2018-12-16T00:46:22.589Z,0.30
2018-12-16T00:48:52.417Z,0.40
2018-12-16T00:51:22.547Z,0.50
2018-12-16T00:53:52.397Z,0.50
2018-12-16T00:56:22.372Z,0.60
2018-12-16T00:58:52.182Z,0.60
2018-12-16T01:01:22.333Z,0.60
2018-12-16T01:03:52.252Z,0.60
2018-12-16T01:06:22.318Z,0.60
2018-12-16T01:08:52.117Z,0.60
2018-12-16T01:11:22.047Z,0.60
2018-12-16T01:13:51.867Z,0.70
2018-12-16T01:16:21.957Z,0.60
2018-12-16T01:18:51.967Z,0.70
2018-12-16T01:21:21.737Z,0.70
2018-12-16T01:23:51.712Z,0.70
2018-12-16T01:26:21.487Z,0.70
2018-12-16T01:28:51.267Z,0.70
2018-12-16T01:31:21.341Z,0.80
2018-12-16T01:33:51.249Z,0.80
2018-12-16T01:36:21.022Z,0.80
2018-12-16T01:38:50.922Z,0.80
2018-12-16T01:41:20.842Z,0.90
2018-12-16T01:43:50.802Z,0.90
2018-12-16T01:46:20.647Z,0.90
2018-12-16T01:48:50.428Z,0.90
2018-12-16T01:51:20.253Z,0.90
2018-12-16T01:53:50.202Z,0.90
2018-12-16T01:56:20.127Z,1.00
2018-12-16T01:58:49.892Z,0.90
2018-12-16T02:01:19.754Z,0.90
2018-12-16T02:03:49.662Z,1.00
2018-12-16T02:06:19.507Z,1.00
2018-12-16T02:08:49.462Z,1.00
2018-12-16T02:11:19.223Z,1.00
2018-12-16T02:13:48.982Z,1.00
2018-12-16T02:16:19.052Z,1.00
2018-12-16T02:18:48.899Z,1.10
2018-12-16T02:21:18.792Z,1.00
2018-12-16T02:23:48.674Z,1.10
2018-12-16T02:26:18.542Z,1.20
2018-12-16T02:28:48.312Z,1.20
2018-12-16T02:31:18.309Z,1.10
2018-12-16T02:33:48.131Z,1.20
2018-12-16T02:36:20.982Z,1.30
2018-12-16T02:38:50.717Z,1.10
2018-12-16T02:41:20.572Z,1.20
2018-12-16T02:43:50.462Z,1.30
2018-12-16T02:46:20.267Z,1.20
2018-12-16T02:48:50.122Z,1.20
2018-12-16T02:51:20.092Z,1.30
2018-12-16T02:53:49.998Z,1.40
2018-12-16T02:56:19.748Z,1.30
2018-12-16T02:58:49.562Z,1.20
2018-12-16T03:01:19.473Z,1.30
2018-12-16T03:03:49.172Z,1.30
2018-12-16T03:06:18.967Z,1.30
2018-12-16T03:08:48.826Z,1.20
2018-12-16T03:11:18.713Z,1.10
2018-12-16T03:13:48.548Z,1.20
2018-12-16T03:16:18.368Z,1.20
2018-12-16T03:18:48.252Z,1.20
2018-12-16T03:21:18.083Z,1.30
2018-12-16T03:23:47.953Z,1.30
2018-12-16T03:26:18.148Z,1.30
2018-12-16T03:28:47.972Z,1.40
2018-12-16T03:31:17.736Z,1.30
2018-12-16T03:33:47.453Z,1.30
2018-12-16T03:36:17.202Z,1.40
2018-12-16T03:38:46.983Z,1.40
2018-12-16T03:41:16.887Z,1.40
2018-12-16T03:43:46.988Z,1.50
2018-12-16T03:46:16.923Z,1.50
2018-12-16T03:48:46.709Z,1.50
2018-12-16T03:51:16.547Z,1.50
2018-12-16T03:53:46.222Z,1.50
2018-12-16T03:56:16.308Z,1.60
2018-12-16T03:58:56.682Z,1.60
2018-12-16T04:01:26.512Z,1.60
2018-12-16T04:03:56.242Z,1.50
2018-12-16T04:06:25.987Z,1.50
2018-12-16T04:08:55.727Z,1.50
2018-12-16T04:11:25.502Z,1.40
2018-12-16T04:13:55.262Z,1.30
2018-12-16T04:16:25.103Z,1.40
2018-12-16T04:18:54.890Z,1.40
2018-12-16T04:21:25.023Z,1.40
2018-12-16T04:23:54.933Z,1.50
2018-12-16T04:26:24.725Z,1.50
2018-12-16T04:28:54.497Z,1.50
2018-12-16T04:31:24.528Z,1.50
2018-12-16T04:33:54.259Z,1.50
2018-12-16T04:36:24.082Z,1.50
2018-12-16T04:39:26.087Z,1.50
2018-12-16T04:41:56.115Z,1.50
2018-12-16T04:44:25.878Z,1.50
2018-12-16T04:46:55.701Z,1.40
2018-12-16T04:49:25.491Z,1.40
2018-12-16T04:51:55.312Z,1.40
2018-12-16T04:54:25.114Z,1.40
2018-12-16T04:56:54.978Z,1.30
2018-12-16T04:59:24.782Z,1.40
2018-12-16T05:01:54.847Z,1.40
2018-12-16T05:04:24.628Z,1.40
2018-12-16T05:06:54.487Z,1.40
2018-12-16T05:09:24.250Z,1.40
2018-12-16T05:11:54.120Z,1.50
2018-12-16T05:14:23.937Z,1.50
2018-12-16T05:16:53.788Z,1.50
2018-12-16T05:19:23.542Z,1.50
2018-12-16T05:21:53.322Z,1.50
2018-12-16T05:24:23.082Z,1.50
2018-12-16T05:26:53.127Z,1.50
2018-12-16T05:29:22.938Z,1.60
2018-12-16T05:31:52.889Z,1.60
2018-12-16T05:34:22.678Z,1.60
2018-12-16T05:36:52.468Z,1.60
2018-12-16T05:39:22.282Z,1.50
2018-12-16T05:41:52.071Z,1.50
2018-12-16T05:44:21.842Z,1.40
2018-12-16T05:46:51.707Z,1.50
2018-12-16T05:49:21.422Z,1.40
2018-12-16T05:51:51.202Z,1.30
2018-12-16T05:54:20.926Z,1.30
2018-12-16T05:56:50.837Z,1.20
2018-12-16T05:59:20.631Z,1.20
2018-12-16T06:01:50.562Z,1.20
2018-12-16T06:04:20.278Z,1.10
2018-12-16T06:06:50.062Z,1.00
2018-12-16T06:09:19.942Z,1.00
2018-12-16T06:11:49.918Z,1.10
2018-12-16T06:14:19.897Z,1.20
2018-12-16T06:16:49.647Z,1.30
2018-12-16T06:19:19.450Z,1.30
2018-12-16T06:21:49.227Z,1.30
2018-12-16T06:24:19.150Z,1.40
2018-12-16T06:26:49.157Z,1.40
2018-12-16T06:29:19.411Z,1.40
2018-12-16T06:31:49.267Z,1.30
2018-12-16T06:34:19.557Z,1.20
2018-12-16T06:36:49.312Z,1.30
2018-12-16T06:39:19.107Z,1.30
2018-12-16T06:41:48.952Z,1.30
2018-12-16T06:44:18.787Z,1.40
2018-12-16T06:46:48.725Z,1.40
2018-12-16T06:49:18.608Z,1.50
2018-12-16T06:51:48.477Z,1.50
2018-12-16T06:54:18.247Z,1.60
2018-12-16T06:56:48.082Z,1.50
2018-12-16T06:59:17.882Z,1.50
2018-12-16T07:01:47.721Z,1.40
2018-12-16T07:04:17.582Z,1.40
2018-12-16T07:06:47.506Z,1.40
2018-12-16T07:09:17.272Z,1.40
2018-12-16T07:11:47.387Z,1.50
2018-12-16T07:14:17.185Z,1.50
2018-12-16T07:16:46.992Z,1.50
2018-12-16T07:19:16.831Z,1.50
2018-12-16T07:21:46.787Z,1.50
2018-12-16T07:24:16.571Z,1.60
2018-12-16T07:26:46.371Z,1.60
2018-12-16T07:29:16.052Z,1.60
2018-12-16T07:31:45.767Z,1.70
2018-12-16T07:34:15.472Z,1.70
2018-12-16T07:36:45.585Z,1.60
2018-12-16T07:39:15.377Z,1.70
2018-12-16T07:41:45.226Z,1.70
2018-12-16T07:44:14.992Z,1.70
2018-12-16T07:46:44.871Z,1.60
2018-12-16T07:49:14.791Z,1.50
2018-12-16T07:51:44.941Z,1.50
2018-12-16T07:54:16.236Z,1.50
2018-12-16T07:56:46.346Z,1.60
2018-12-16T07:59:16.161Z,1.60
2018-12-16T08:02:16.234Z,1.60
2018-12-16T08:04:46.031Z,1.60
2018-12-16T08:07:15.896Z,1.70
2018-12-16T08:09:45.693Z,1.60
2018-12-16T08:12:15.686Z,1.60
2018-12-16T08:14:45.697Z,1.60
2018-12-16T08:17:15.652Z,1.60
2018-12-16T08:19:45.927Z,1.70
2018-12-16T08:22:16.004Z,1.70
2018-12-16T08:24:46.062Z,1.70
2018-12-16T08:27:15.997Z,1.70
2018-12-16T08:29:46.097Z,1.70
2018-12-16T08:32:16.252Z,1.60
2018-12-16T08:34:46.147Z,1.70
2018-12-16T08:37:16.142Z,1.70
2018-12-16T08:39:46.045Z,1.70
2018-12-16T08:42:15.867Z,1.70
2018-12-16T08:44:45.627Z,1.70
2018-12-16T08:47:15.927Z,1.70
2018-12-16T08:49:45.812Z,1.70
2018-12-16T08:52:16.123Z,1.50
2018-12-16T08:54:46.120Z,1.50
2018-12-16T08:57:16.187Z,1.50
2018-12-16T08:59:46.082Z,1.50
2018-12-16T09:02:15.907Z,1.40
2018-12-16T09:04:51.887Z,1.40
2018-12-16T09:07:22.034Z,1.30
2018-12-16T09:09:51.893Z,1.20
2018-12-16T09:12:21.739Z,1.10
2018-12-16T09:14:51.882Z,1.00
2018-12-16T09:17:22.053Z,1.00
2018-12-16T09:19:51.829Z,1.00
2018-12-16T09:22:21.843Z,0.90
2018-12-16T09:24:51.752Z,0.90
2018-12-16T09:27:21.818Z,0.90
2018-12-16T09:29:51.613Z,1.00
2018-12-16T09:32:21.623Z,1.00
2018-12-16T09:34:51.447Z,1.00
2018-12-16T09:37:21.309Z,1.00
2018-12-16T09:39:51.173Z,1.00
2018-12-16T09:42:21.132Z,1.10
2018-12-16T09:44:51.142Z,1.10
2018-12-16T09:47:21.337Z,1.20
2018-12-16T09:49:51.142Z,1.20
2018-12-16T09:52:21.217Z,1.20
2018-12-16T09:54:51.447Z,1.30
2018-12-16T09:57:21.383Z,1.20
2018-12-16T09:59:51.198Z,1.20
2018-12-16T10:02:21.048Z,1.30
2018-12-16T10:04:51.337Z,1.20
2018-12-16T10:07:21.209Z,1.40
2018-12-16T10:09:51.117Z,1.50
2018-12-16T10:12:21.067Z,1.70
2018-12-16T10:14:50.998Z,1.70
2018-12-16T10:17:21.172Z,1.90
2018-12-16T10:19:51.028Z,1.90
2018-12-16T10:22:20.832Z,2.10
2018-12-16T10:24:51.433Z,2.10
2018-12-16T10:27:21.738Z,2.20
2018-12-16T10:29:51.801Z,2.20
2018-12-16T10:32:21.744Z,2.30
2018-12-16T10:34:51.492Z,2.30
2018-12-16T10:37:21.462Z,2.40
2018-12-16T10:39:51.167Z,2.30
2018-12-16T10:42:21.102Z,2.30
2018-12-16T10:44:50.852Z,2.30
2018-12-16T10:47:20.662Z,2.30
2018-12-16T10:49:50.813Z,2.30
2018-12-16T10:52:20.802Z,2.30
2018-12-16T10:54:50.512Z,2.40
2018-12-16T10:57:20.592Z,2.40
2018-12-16T10:59:50.317Z,2.40
2018-12-16T11:02:20.093Z,2.40
2018-12-16T11:04:50.123Z,2.40
2018-12-16T11:07:20.630Z,2.40
2018-12-16T11:09:51.643Z,2.40
2018-12-16T11:12:21.763Z,2.40
2018-12-16T11:14:51.527Z,2.50
2018-12-16T11:17:21.318Z,2.60
2018-12-16T11:19:51.172Z,2.50
2018-12-16T11:22:20.923Z,2.60
2018-12-16T11:24:50.840Z,2.60
2018-12-16T11:27:20.833Z,2.60
2018-12-16T11:29:50.673Z,2.50
2018-12-16T11:32:20.458Z,2.30
2018-12-16T11:34:50.230Z,2.10
2018-12-16T11:37:20.008Z,2.10
2018-12-16T11:39:49.702Z,2.10
2018-12-16T11:42:19.559Z,2.10
2018-12-16T11:44:49.387Z,2.00
2018-12-16T11:47:19.213Z,2.10
2018-12-16T11:49:48.998Z,2.20
2018-12-16T11:52:18.784Z,2.40
2018-12-16T11:54:48.543Z,2.40
2018-12-16T11:57:18.628Z,2.40
2018-12-16T11:59:48.493Z,2.50
2018-12-16T12:02:18.323Z,2.50
2018-12-16T12:04:48.069Z,2.50
2018-12-16T12:07:17.860Z,2.60
2018-12-16T12:09:47.643Z,2.70
2018-12-16T12:12:17.454Z,2.80
2018-12-16T12:14:47.478Z,2.70
2018-12-16T12:17:17.462Z,2.70
2018-12-16T12:19:47.343Z,2.70
2018-12-16T12:22:17.608Z,2.70
2018-12-16T12:24:47.549Z,2.70
2018-12-16T12:27:17.554Z,2.70
2018-12-16T12:29:47.588Z,2.70
2018-12-16T12:32:17.603Z,2.60
2018-12-16T12:34:47.804Z,2.70
2018-12-16T12:37:18.765Z,2.80
2018-12-16T12:39:48.579Z,2.80
2018-12-16T12:42:18.699Z,2.70
2018-12-16T12:44:48.909Z,2.70
2018-12-16T12:47:19.008Z,2.80
2018-12-16T12:49:49.014Z,2.90
2018-12-16T12:52:18.965Z,2.80
2018-12-16T12:54:48.913Z,2.70
2018-12-16T12:57:18.905Z,2.70
2018-12-16T12:59:49.160Z,2.60
2018-12-16T13:02:19.149Z,2.60
2018-12-16T13:04:49.114Z,2.60
2018-12-16T13:07:19.183Z,2.60
2018-12-16T13:09:49.198Z,2.60
2018-12-16T13:12:19.894Z,2.70
2018-12-16T13:14:49.790Z,2.60
2018-12-16T13:17:19.879Z,2.70
2018-12-16T13:19:49.810Z,2.60
2018-12-16T13:22:19.721Z,2.50
2018-12-16T13:25:00.174Z,2.50
2018-12-16T13:27:30.183Z,2.50
2018-12-16T13:30:00.054Z,2.50
2018-12-16T13:32:29.999Z,2.50
2018-12-16T13:34:59.859Z,2.50
2018-12-16T13:37:29.757Z,2.50
2018-12-16T13:39:59.599Z,2.50
2018-12-16T13:42:29.429Z,2.50
2018-12-16T13:44:59.394Z,2.50
2018-12-16T13:47:29.675Z,2.50
2018-12-16T13:49:59.699Z,2.40
2018-12-16T13:52:29.588Z,2.30
2018-12-16T13:54:59.599Z,2.10
2018-12-16T13:57:30.424Z,2.10
2018-12-16T14:00:00.239Z,2.20
2018-12-16T14:02:30.279Z,2.30
2018-12-16T14:05:00.139Z,2.10
2018-12-16T14:07:30.009Z,2.20
2018-12-16T14:09:59.919Z,2.10
2018-12-16T14:12:30.019Z,2.10
2018-12-16T14:15:03.001Z,2.20
2018-12-16T14:17:35.086Z,2.30
2018-12-16T14:20:05.559Z,2.20
2018-12-16T14:22:35.384Z,2.10
2018-12-16T14:25:05.914Z,2.00
2018-12-16T14:27:35.864Z,2.00
2018-12-16T14:30:07.779Z,1.90
2018-12-16T14:32:37.769Z,1.80
2018-12-16T14:35:08.806Z,1.80
2018-12-16T14:37:38.708Z,1.70
2018-12-16T14:40:10.410Z,1.60
2018-12-16T14:42:40.609Z,1.60
2018-12-16T14:45:11.348Z,1.70
2018-12-16T14:47:41.210Z,1.90
2018-12-16T14:50:12.074Z,1.90
2018-12-16T14:52:41.968Z,2.00
2018-12-16T14:55:11.924Z,2.00
2018-12-16T14:57:42.263Z,2.00
2018-12-16T15:00:13.326Z,2.10
2018-12-16T15:02:43.354Z,2.00
2018-12-16T15:05:13.609Z,2.00
2018-12-16T15:07:43.473Z,2.00
2018-12-16T15:10:17.174Z,2.00
2018-12-16T15:12:47.280Z,2.10
2018-12-16T15:15:20.380Z,2.10
2018-12-16T15:17:53.524Z,2.10
2018-12-16T15:20:23.554Z,2.20
2018-12-16T15:22:53.768Z,2.20
2018-12-16T15:25:23.888Z,2.20
2018-12-16T15:27:53.914Z,2.20
2018-12-16T15:30:24.854Z,2.10
2018-12-16T15:32:54.970Z,2.00
2018-12-16T15:35:25.329Z,2.00
2018-12-16T15:37:55.484Z,2.00
2018-12-16T15:40:25.418Z,2.00
2018-12-16T15:42:56.588Z,2.00
2018-12-16T15:45:26.661Z,2.00
2018-12-16T15:47:56.848Z,2.00
2018-12-16T15:50:26.834Z,1.90
2018-12-16T15:52:59.858Z,1.90
2018-12-16T15:55:31.694Z,1.90
2018-12-16T15:58:02.229Z,1.80
2018-12-16T16:00:33.508Z,1.90
2018-12-16T16:03:03.745Z,1.80
2018-12-16T16:05:35.603Z,1.70
2018-12-16T16:08:06.059Z,1.70
2018-12-16T16:10:37.108Z,1.60
2018-12-16T16:13:11.289Z,1.60
2018-12-16T16:15:41.633Z,1.70
2018-12-16T16:18:14.399Z,1.70
2018-12-16T16:20:44.733Z,1.70
2018-12-16T16:23:18.408Z,1.80
2018-12-16T16:25:48.264Z,1.80
2018-12-16T16:28:19.263Z,1.70
2018-12-16T16:30:52.108Z,1.80
2018-12-16T16:33:22.513Z,2.00
2018-12-16T16:35:52.589Z,2.00
2018-12-16T16:38:22.946Z,2.10
2018-12-16T16:40:54.188Z,2.00
2018-12-16T16:43:29.734Z,2.00
2018-12-16T16:46:02.243Z,2.10
2018-12-16T16:48:34.279Z,2.10
2018-12-16T16:51:08.014Z,2.20
2018-12-16T16:53:56.915Z,2.10
2018-12-16T16:56:55.969Z,2.10
2018-12-16T17:05:46.259Z,1.70
2018-12-16T17:08:46.431Z,1.90
2018-12-16T17:11:28.098Z,1.90
2018-12-16T17:13:58.590Z,2.10
2018-12-16T17:16:28.894Z,2.20
2018-12-16T17:19:00.624Z,2.20
2018-12-16T17:21:31.039Z,2.10
2018-12-16T17:24:01.264Z,2.10
2018-12-16T17:26:31.230Z,2.00
2018-12-16T17:29:01.348Z,2.00
2018-12-16T17:31:34.421Z,2.10
2018-12-16T17:34:05.149Z,2.10
2018-12-16T17:36:35.099Z,2.10
2018-12-16T17:39:07.629Z,2.10
2018-12-16T17:41:37.588Z,1.90
2018-12-16T17:44:07.609Z,1.90
2018-12-16T17:46:37.669Z,2.00
2018-12-16T17:49:07.694Z,2.00
2018-12-16T17:51:37.693Z,2.00
2018-12-16T17:54:07.644Z,1.90
2018-12-16T17:56:37.554Z,2.00
2018-12-16T17:59:07.607Z,2.00
2018-12-16T18:01:37.417Z,2.10
2018-12-16T18:04:10.533Z,2.10
2018-12-16T18:06:40.673Z,2.10
2018-12-16T18:09:10.663Z,2.10
2018-12-16T18:11:40.763Z,2.10
2018-12-16T18:14:10.809Z,2.10
2018-12-16T18:16:40.828Z,2.00
2018-12-16T18:19:10.790Z,2.00
2018-12-16T18:21:40.784Z,2.00
2018-12-16T18:24:10.664Z,1.90
2018-12-16T18:26:44.099Z,2.00
2018-12-16T18:29:12.424Z,2.00
2018-12-16T18:31:42.356Z,2.00
2018-12-16T18:34:12.339Z,2.00
2018-12-16T18:36:42.333Z,2.00
2018-12-16T18:39:12.235Z,2.00
2018-12-16T18:41:42.326Z,2.10
2018-12-16T18:44:12.264Z,2.00
2018-12-16T18:46:42.154Z,2.00
2018-12-16T18:49:12.109Z,2.10
2018-12-16T18:51:42.069Z,2.10
2018-12-16T18:54:11.973Z,2.10
2018-12-16T18:56:41.948Z,2.00
2018-12-16T18:59:11.791Z,2.00
2018-12-16T19:01:41.759Z,2.10
2018-12-16T19:04:11.800Z,1.90
2018-12-16T19:06:41.698Z,1.90
2018-12-16T19:09:13.838Z,1.90
2018-12-16T19:11:43.861Z,1.90
2018-12-16T19:14:13.788Z,1.80
2018-12-16T19:16:43.819Z,1.80
2018-12-16T19:19:13.968Z,1.60
2018-12-16T19:21:43.884Z,1.60
2018-12-16T19:24:14.046Z,1.60
2018-12-16T19:26:47.229Z,1.60
2018-12-16T19:29:19.319Z,1.80
2018-12-16T19:31:49.594Z,1.80
2018-12-16T19:34:19.494Z,1.90
2018-12-16T19:36:49.793Z,2.00
2018-12-16T19:39:19.724Z,1.90
2018-12-16T19:41:53.013Z,1.90
2018-12-16T19:44:24.582Z,1.90
2018-12-16T19:46:54.623Z,1.90
2018-12-16T19:49:24.553Z,2.00
2018-12-16T19:51:54.369Z,1.90
2018-12-16T19:54:24.584Z,2.00
2018-12-16T19:56:54.516Z,2.00
2018-12-16T19:59:24.475Z,2.00
2018-12-16T20:01:54.583Z,2.00
2018-12-16T20:04:26.658Z,1.90
2018-12-16T20:06:56.542Z,1.90
2018-12-16T20:09:26.378Z,1.70
2018-12-16T20:11:56.373Z,1.80
2018-12-16T20:14:26.353Z,1.60
2018-12-16T20:16:56.234Z,1.60
2018-12-16T20:19:26.224Z,1.70
2018-12-16T20:21:56.143Z,1.70
2018-12-16T20:24:26.223Z,1.70
2018-12-16T20:26:56.448Z,1.70
2018-12-16T20:29:26.623Z,1.80
2018-12-16T20:31:58.178Z,1.80
2018-12-16T20:34:28.390Z,1.70
2018-12-16T20:36:58.328Z,1.80
2018-12-16T20:39:28.222Z,1.80
2018-12-16T20:41:58.424Z,1.80
2018-12-16T20:44:29.585Z,1.90
2018-12-16T20:47:00.138Z,1.90
2018-12-16T20:49:30.395Z,1.90
2018-12-16T20:52:00.406Z,1.80
2018-12-16T20:54:30.424Z,1.80
2018-12-16T20:57:00.553Z,1.80
2018-12-16T20:59:31.033Z,1.80
2018-12-16T21:02:01.153Z,1.50
2018-12-16T21:04:32.288Z,1.30
2018-12-16T21:07:02.300Z,1.40
2018-12-16T21:09:32.303Z,1.50
2018-12-16T21:12:04.795Z,1.60
2018-12-16T21:14:39.591Z,1.70
2018-12-16T21:19:18.616Z,1.70
2018-12-16T21:21:48.645Z,1.70
2018-12-16T21:24:18.764Z,1.80
2018-12-16T21:26:48.853Z,1.80
2018-12-16T21:29:18.865Z,1.90
2018-12-16T21:31:48.824Z,1.80
2018-12-16T21:34:18.862Z,1.80
2018-12-16T21:36:48.998Z,1.80
2018-12-16T21:39:19.073Z,1.70
2018-12-16T21:41:48.953Z,1.70
2018-12-16T21:44:19.073Z,1.70
2018-12-16T21:46:49.397Z,1.70
2018-12-16T21:49:19.638Z,1.60
2018-12-16T21:51:49.843Z,1.70
2018-12-16T21:54:20.544Z,1.70
2018-12-16T21:56:50.468Z,1.70
2018-12-16T21:59:20.464Z,1.70
2018-12-16T22:01:50.853Z,1.70
2018-12-16T22:04:20.883Z,1.70
2018-12-16T22:06:50.737Z,1.80
2018-12-16T22:09:23.604Z,1.90
2018-12-16T22:11:53.938Z,1.90
2018-12-16T22:14:23.897Z,1.90
2018-12-16T22:16:53.763Z,1.90
2018-12-16T22:19:23.553Z,1.90
2018-12-16T22:21:53.379Z,1.90
2018-12-16T22:24:23.322Z,1.90
2018-12-16T22:26:53.238Z,1.90
2018-12-16T22:29:23.213Z,1.90
2018-12-16T22:31:53.073Z,2.00
2018-12-16T22:34:22.968Z,1.90
2018-12-16T22:36:52.725Z,1.90
2018-12-16T22:39:22.672Z,1.80
2018-12-16T22:41:52.827Z,1.80
2018-12-16T22:44:22.702Z,1.80
2018-12-16T22:46:52.588Z,1.90
2018-12-16T22:49:22.638Z,1.90
2018-12-16T22:51:52.443Z,1.90
2018-12-16T22:54:22.223Z,1.90
2018-12-16T22:56:52.057Z,1.90
2018-12-16T22:59:22.219Z,1.90
2018-12-16T23:01:52.162Z,1.90
2018-12-16T23:04:22.208Z,2.00
2018-12-16T23:06:52.242Z,2.00
2018-12-16T23:09:22.109Z,2.00
2018-12-16T23:11:52.167Z,1.90
2018-12-16T23:14:22.133Z,1.90
2018-12-16T23:16:52.142Z,1.90
2018-12-16T23:19:22.097Z,1.90
2018-12-16T23:21:51.877Z,1.90
2018-12-16T23:24:22.617Z,1.90
2018-12-16T23:26:53.433Z,1.90
2018-12-16T23:29:23.688Z,2.00
2018-12-16T23:31:54.217Z,2.00
2018-12-16T23:34:24.247Z,2.00
2018-12-16T23:36:54.486Z,2.00
2018-12-16T23:39:24.526Z,2.00
2018-12-16T23:41:54.242Z,2.00
2018-12-16T23:44:24.137Z,2.00
2018-12-16T23:46:53.952Z,2.00
2018-12-16T23:49:23.944Z,1.90
2018-12-16T23:51:53.806Z,1.90
2018-12-16T23:54:23.845Z,1.90
2018-12-16T23:56:53.871Z,1.90
2018-12-16T23:59:23.787Z,2.00
